Time;durP1;ratioP1;P1;durP2;ratioP2;P2;SDS_P1;SDS_P2;PMS_P1;PMS_P2;Temp;Humidity;BMP_temperature;BMP_pressure;BME280_temperature;BME280_humidity;BME280_pressure;Samples;Min_cycle;Max_cycle;Signal;HPM_P1;HPM_P2
2021/12/17 00:06:47;;;;;;;17.35;13.23;;;;;;;;;;4484223;28;20534;-65
2021/12/17 00:08:58;;;;;;;17.83;12.70;;;;;;;;;;4468535;28;20039;-65
2021/12/17 00:11:10;;;;;;;17.83;13.43;;;;;;;;;;4484657;28;20034;-65
2021/12/17 00:13:21;;;;;;;18.67;13.82;;;;;;;;;;4452191;28;20595;-65
2021/12/17 00:15:31;;;;;;;18.90;14.27;;;;;;;;;;4452233;28;20909;-65
2021/12/17 00:17:52;;;;;;;19.10;13.67;;;;;;;;;;4467927;28;20035;-65
2021/12/17 00:40:32;;;;;;;17.85;12.77;;;;;;;;;;4469708;28;20035;-65
2021/12/17 00:50:34;;;;;;;13.23;9.07;;;;;;;;;;4484707;28;20045;-65
2021/12/17 00:52:43;;;;;;;12.23;8.25;;;;;;;;;;4469754;28;20120;-65
2021/12/17 00:54:54;;;;;;;10.87;7.47;;;;;;;;;;4469529;28;20041;-65
2021/12/17 00:57:11;;;;;;;9.43;7.00;;;;;;;;;;4452093;28;20495;-65
2021/12/17 00:59:21;;;;;;;7.25;5.13;;;;;;;;;;4469139;28;20074;-65
2021/12/17 01:01:32;;;;;;;6.27;4.50;;;;;;;;;;4469695;28;20039;-65
2021/12/17 01:03:45;;;;;;;4.63;3.33;;;;;;;;;;4468106;28;20097;-65
2021/12/17 01:05:55;;;;;;;3.63;2.80;;;;;;;;;;4484149;28;20085;-65
2021/12/17 01:08:07;;;;;;;3.70;3.10;;;;;;;;;;4483931;28;20617;-65
2021/12/17 01:10:23;;;;;;;4.80;3.30;;;;;;;;;;4451345;28;20043;-65
2021/12/17 01:13:07;;;;;;;4.45;3.28;;;;;;;;;;4483468;28;20038;-65
2021/12/17 01:15:25;;;;;;;4.03;3.08;;;;;;;;;;4451346;28;20035;-65
2021/12/17 01:18:15;;;;;;;3.38;2.78;;;;;;;;;;4414272;28;20051;-65
2021/12/17 01:37:52;;;;;;;3.35;2.55;;;;;;;;;;4454398;28;20142;-65
2021/12/17 01:42:05;;;;;;;3.03;2.45;;;;;;;;;;4483862;28;20041;-65
2021/12/17 01:44:18;;;;;;;3.33;2.70;;;;;;;;;;4484315;28;20035;-65
2021/12/17 01:46:31;;;;;;;2.60;2.38;;;;;;;;;;4483474;28;20594;-65
2021/12/17 01:49:00;;;;;;;3.35;2.63;;;;;;;;;;4466650;28;20069;-65
2021/12/17 02:00:56;;;;;;;3.28;2.67;;;;;;;;;;4451120;28;20031;-65
2021/12/17 02:03:09;;;;;;;2.92;2.40;;;;;;;;;;4451943;28;20159;-65
2021/12/17 02:05:20;;;;;;;2.60;2.40;;;;;;;;;;4468460;28;20035;-65
2021/12/17 02:07:30;;;;;;;2.53;2.30;;;;;;;;;;4468874;28;20039;-65
2021/12/17 02:29:15;;;;;;;2.47;2.17;;;;;;;;;;4468609;28;20039;-65
2021/12/17 02:31:29;;;;;;;2.60;2.20;;;;;;;;;;4451402;28;20040;-65
2021/12/17 02:33:43;;;;;;;2.78;2.22;;;;;;;;;;4466340;28;20143;-65
2021/12/17 02:35:53;;;;;;;3.47;2.50;;;;;;;;;;4450483;28;20046;-65
2021/12/17 02:38:05;;;;;;;2.87;2.47;;;;;;;;;;4468264;28;20038;-65
2021/12/17 02:46:03;;;;;;;3.15;2.50;;;;;;;;;;4486654;28;20817;-65
2021/12/17 02:48:13;;;;;;;4.20;2.97;;;;;;;;;;4484783;28;20038;-65
2021/12/17 02:50:25;;;;;;;3.97;3.10;;;;;;;;;;4453443;28;20103;-65
2021/12/17 02:52:37;;;;;;;3.20;2.60;;;;;;;;;;4483225;28;20113;-66
2021/12/17 02:54:48;;;;;;;3.70;2.70;;;;;;;;;;4471512;28;20039;-65
2021/12/17 02:56:58;;;;;;;4.33;3.03;;;;;;;;;;4486682;28;20035;-65
2021/12/17 02:59:13;;;;;;;2.87;2.53;;;;;;;;;;4453263;28;20488;-65
2021/12/17 03:01:24;;;;;;;2.97;2.42;;;;;;;;;;4472149;28;20039;-65
2021/12/17 03:03:38;;;;;;;2.80;2.10;;;;;;;;;;4439965;28;20031;-65
2021/12/17 03:05:49;;;;;;;2.95;2.58;;;;;;;;;;4470941;28;20050;-65
2021/12/17 03:08:00;;;;;;;4.35;2.83;;;;;;;;;;4471651;28;20042;-65
2021/12/17 03:10:12;;;;;;;2.92;2.25;;;;;;;;;;4453545;28;20046;-65
2021/12/17 03:12:32;;;;;;;2.83;2.30;;;;;;;;;;4486167;28;20677;-65
2021/12/17 03:14:51;;;;;;;2.85;2.30;;;;;;;;;;4464495;28;20122;-66
2021/12/17 03:17:09;;;;;;;3.22;2.42;;;;;;;;;;4454692;28;20039;-65
2021/12/17 03:23:25;;;;;;;2.65;2.15;;;;;;;;;;4470881;28;20565;-66
2021/12/17 03:24:22;;;;;;;2.90;2.53;;;;;;;;;;4485913;28;20482;-65
2021/12/17 03:26:33;;;;;;;2.72;2.30;;;;;;;;;;4436805;28;20040;-66
2021/12/17 03:28:56;;;;;;;3.28;2.50;;;;;;;;;;4452905;28;20061;-66
2021/12/17 03:31:08;;;;;;;3.22;2.33;;;;;;;;;;4487055;28;20041;-65
2021/12/17 03:33:21;;;;;;;3.13;2.30;;;;;;;;;;4484862;28;20031;-65
2021/12/17 03:35:32;;;;;;;2.50;2.15;;;;;;;;;;4452756;28;20042;-65
2021/12/17 03:37:42;;;;;;;3.50;2.50;;;;;;;;;;4452340;28;20412;-65
2021/12/17 03:39:53;;;;;;;3.15;2.50;;;;;;;;;;4453805;28;20046;-65
2021/12/17 03:42:07;;;;;;;3.30;2.50;;;;;;;;;;4452561;28;20441;-66
2021/12/17 03:44:20;;;;;;;3.45;2.70;;;;;;;;;;4452413;28;20102;-66
2021/12/17 03:46:48;;;;;;;5.03;3.47;;;;;;;;;;4452789;28;20058;-65
2021/12/17 03:49:02;;;;;;;3.80;2.90;;;;;;;;;;4453179;28;20110;-66
2021/12/17 03:51:15;;;;;;;3.38;2.47;;;;;;;;;;4468744;28;20775;-66
2021/12/17 03:53:27;;;;;;;3.58;2.45;;;;;;;;;;4440073;28;20031;-66
2021/12/17 03:55:37;;;;;;;4.43;2.90;;;;;;;;;;4470925;28;20879;-66
2021/12/17 03:57:50;;;;;;;3.40;2.72;;;;;;;;;;4452541;28;20043;-66
2021/12/17 04:00:00;;;;;;;3.50;2.70;;;;;;;;;;4482602;28;20039;-65
2021/12/17 04:02:17;;;;;;;3.53;2.60;;;;;;;;;;4469280;28;20047;-65
2021/12/17 04:04:27;;;;;;;3.00;2.50;;;;;;;;;;4485011;28;20031;-65
2021/12/17 04:06:58;;;;;;;3.40;2.58;;;;;;;;;;4469694;28;20078;-65
2021/12/17 04:09:32;;;;;;;2.65;2.40;;;;;;;;;;4471044;28;20549;-65
2021/12/17 04:11:49;;;;;;;3.92;2.80;;;;;;;;;;4452556;28;20039;-65
2021/12/17 04:14:19;;;;;;;3.38;2.63;;;;;;;;;;4485229;28;20034;-65
2021/12/17 04:16:40;;;;;;;3.10;2.60;;;;;;;;;;4484831;28;20045;-65
2021/12/17 04:18:51;;;;;;;2.70;2.20;;;;;;;;;;4484721;28;20403;-65
2021/12/17 04:21:03;;;;;;;2.78;1.98;;;;;;;;;;4485164;28;20558;-65
2021/12/17 04:23:15;;;;;;;3.63;2.85;;;;;;;;;;4452293;28;20047;-66
2021/12/17 04:25:28;;;;;;;3.30;2.65;;;;;;;;;;4436571;28;20032;-65
2021/12/17 04:27:39;;;;;;;3.00;2.22;;;;;;;;;;4452068;28;20126;-66
2021/12/17 04:29:51;;;;;;;2.70;2.10;;;;;;;;;;4469774;28;20109;-66
2021/12/17 04:32:02;;;;;;;3.05;2.53;;;;;;;;;;4452044;28;20035;-65
2021/12/17 04:34:18;;;;;;;3.38;2.70;;;;;;;;;;4484413;28;21019;-65
2021/12/17 04:36:32;;;;;;;;;;;;;;;;;;4486049;28;20596;-65
2021/12/17 04:38:45;;;;;;;2.45;2.05;;;;;;;;;;4484810;28;19924;-65
2021/12/17 04:41:07;;;;;;;2.77;2.13;;;;;;;;;;4451654;28;20042;-65
2021/12/17 04:43:42;;;;;;;2.60;2.10;;;;;;;;;;4484296;28;20926;-65
2021/12/17 04:46:23;;;;;;;2.45;2.15;;;;;;;;;;4464465;28;20642;-65
2021/12/17 04:58:39;;;;;;;2.53;2.10;;;;;;;;;;4484259;28;20161;-66
2021/12/17 05:00:50;;;;;;;2.43;1.80;;;;;;;;;;4469845;28;20638;-66
2021/12/17 05:03:05;;;;;;;3.45;2.40;;;;;;;;;;4483770;28;20053;-66
2021/12/17 05:05:20;;;;;;;2.63;2.25;;;;;;;;;;4484386;28;20125;-66
2021/12/17 05:07:35;;;;;;;3.03;2.42;;;;;;;;;;4484125;28;20616;-66
2021/12/17 05:10:12;;;;;;;4.03;2.83;;;;;;;;;;4451709;28;20023;-66
2021/12/17 05:19:52;;;;;;;2.88;2.22;;;;;;;;;;4468868;28;20026;-66
2021/12/17 05:22:08;;;;;;;2.78;2.20;;;;;;;;;;4466988;28;20195;-66
2021/12/17 05:24:18;;;;;;;2.33;1.98;;;;;;;;;;4451543;28;20068;-66
2021/12/17 05:26:29;;;;;;;2.40;2.00;;;;;;;;;;4467441;28;20549;-66
2021/12/17 05:28:41;;;;;;;3.40;2.72;;;;;;;;;;4483797;28;20097;-66
2021/12/17 05:30:54;;;;;;;3.70;2.75;;;;;;;;;;4466962;28;20041;-65
2021/12/17 05:33:05;;;;;;;3.33;2.38;;;;;;;;;;4482476;28;20038;-66
2021/12/17 05:35:16;;;;;;;10.65;8.00;;;;;;;;;;4467529;28;20284;-66
2021/12/17 05:37:27;;;;;;;9.87;6.73;;;;;;;;;;4451108;28;20119;-66
2021/12/17 05:39:38;;;;;;;8.60;6.07;;;;;;;;;;4483216;28;20035;-66
2021/12/17 05:41:49;;;;;;;;;;;;;;;;;;4483688;28;20038;-66
2021/12/17 05:44:29;;;;;;;10.35;7.57;;;;;;;;;;4460818;28;20003;-66
2021/12/17 05:46:50;;;;;;;9.45;6.35;;;;;;;;;;4435703;28;20769;-66
2021/12/17 05:49:02;;;;;;;10.65;7.53;;;;;;;;;;4483465;28;20558;-66
2021/12/17 05:51:12;;;;;;;10.48;8.07;;;;;;;;;;4467747;28;20038;-66
2021/12/17 05:53:24;;;;;;;10.90;8.00;;;;;;;;;;4450878;28;20043;-66
2021/12/17 05:55:35;;;;;;;11.10;7.88;;;;;;;;;;4484353;28;20034;-66
2021/12/17 05:57:45;;;;;;;12.00;8.43;;;;;;;;;;4469023;28;20070;-66
2021/12/17 05:59:56;;;;;;;10.10;7.00;;;;;;;;;;4451264;28;20162;-66
2021/12/17 06:02:11;;;;;;;7.77;5.20;;;;;;;;;;4451499;28;20275;-66
2021/12/17 06:04:25;;;;;;;7.30;5.00;;;;;;;;;;4466011;28;20070;-66
2021/12/17 06:06:46;;;;;;;4.38;3.08;;;;;;;;;;4483856;28;20149;-66
2021/12/17 06:08:57;;;;;;;11.75;8.13;;;;;;;;;;4483632;28;20036;-66
2021/12/17 06:11:07;;;;;;;9.95;7.00;;;;;;;;;;4483512;28;21005;-66
2021/12/17 06:13:18;;;;;;;10.00;7.43;;;;;;;;;;4453039;28;20546;-66
2021/12/17 06:15:28;;;;;;;11.73;7.67;;;;;;;;;;4451323;28;20039;-66
2021/12/17 06:17:39;;;;;;;9.63;6.97;;;;;;;;;;4454369;28;20464;-66
2021/12/17 06:19:50;;;;;;;9.68;7.35;;;;;;;;;;4453631;28;20047;-66
2021/12/17 06:22:01;;;;;;;11.10;7.28;;;;;;;;;;4469803;28;20073;-65
2021/12/17 06:24:14;;;;;;;10.18;7.47;;;;;;;;;;4453537;28;20118;-66
2021/12/17 06:26:25;;;;;;;;;;;;;;;;;;4486888;28;20035;-66
2021/12/17 06:28:38;;;;;;;10.15;7.50;;;;;;;;;;4470806;28;19918;-66
2021/12/17 06:30:48;;;;;;;9.70;6.77;;;;;;;;;;4485931;28;20026;-66
2021/12/17 06:33:06;;;;;;;10.55;7.65;;;;;;;;;;4453779;28;20523;-66
2021/12/17 06:35:17;;;;;;;9.80;6.82;;;;;;;;;;4453481;28;20032;-66
2021/12/17 06:37:28;;;;;;;10.70;7.80;;;;;;;;;;4454067;28;20035;-66
2021/12/17 06:39:40;;;;;;;10.02;7.32;;;;;;;;;;4469183;28;20042;-66
2021/12/17 06:41:52;;;;;;;9.65;6.97;;;;;;;;;;4482491;28;20826;-66
2021/12/17 06:44:03;;;;;;;9.13;6.70;;;;;;;;;;4454171;28;20118;-66
2021/12/17 06:48:32;;;;;;;10.43;7.35;;;;;;;;;;4486587;28;20062;-66
2021/12/17 06:57:00;;;;;;;10.43;6.93;;;;;;;;;;4467650;28;20121;-66
2021/12/17 07:00:07;;;;;;;9.32;6.72;;;;;;;;;;4471935;28;20487;-66
2021/12/17 07:10:59;;;;;;;9.45;6.65;;;;;;;;;;4466389;28;20035;-66
2021/12/17 07:23:23;;;;;;;10.05;6.88;;;;;;;;;;4421706;28;20123;-66
2021/12/17 07:28:14;;;;;;;10.30;7.68;;;;;;;;;;4452214;28;20052;-65
2021/12/17 07:35:38;;;;;;;8.40;6.13;;;;;;;;;;4468564;28;19922;-67
2021/12/17 07:40:19;;;;;;;7.75;5.60;;;;;;;;;;4485150;28;20060;-64
2021/12/17 07:42:34;;;;;;;8.02;5.60;;;;;;;;;;4484773;28;20041;-64
2021/12/17 07:44:44;;;;;;;7.95;5.40;;;;;;;;;;4470538;28;20054;-64
2021/12/17 07:47:08;;;;;;;8.07;5.50;;;;;;;;;;4485213;28;20152;-64
2021/12/17 07:49:19;;;;;;;5.83;4.13;;;;;;;;;;4452236;28;20141;-64
2021/12/17 07:51:29;;;;;;;6.60;4.60;;;;;;;;;;4485288;28;20101;-64
2021/12/17 07:53:46;;;;;;;6.22;4.10;;;;;;;;;;4451441;28;20271;-64
2021/12/17 07:56:18;;;;;;;6.57;4.53;;;;;;;;;;4469767;28;20050;-65
2021/12/17 07:58:30;;;;;;;6.20;4.47;;;;;;;;;;4468199;28;20090;-64
2021/12/17 08:00:41;;;;;;;6.78;4.43;;;;;;;;;;4485597;28;20129;-65
2021/12/17 08:02:53;;;;;;;5.93;4.07;;;;;;;;;;4477696;28;20049;-64
2021/12/17 08:05:43;;;;;;;5.53;4.00;;;;;;;;;;4443738;28;20145;-64
2021/12/17 08:07:54;;;;;;;5.28;3.83;;;;;;;;;;4484579;28;20034;-64
2021/12/17 08:10:05;;;;;;;5.30;3.80;;;;;;;;;;4451710;28;20031;-65
2021/12/17 08:12:17;;;;;;;5.03;3.60;;;;;;;;;;4450915;28;20134;-64
2021/12/17 08:14:39;;;;;;;5.22;3.72;;;;;;;;;;4466688;28;20579;-65
2021/12/17 08:31:36;;;;;;;4.72;3.28;;;;;;;;;;4484340;28;20038;-65
2021/12/17 08:33:48;;;;;;;5.47;3.45;;;;;;;;;;4451935;28;20035;-65
2021/12/17 08:35:59;;;;;;;5.87;3.73;;;;;;;;;;4484595;28;20360;-64
2021/12/17 08:38:19;;;;;;;5.45;3.60;;;;;;;;;;4450981;28;20262;-64
2021/12/17 08:40:30;;;;;;;4.47;2.97;;;;;;;;;;4450827;28;20041;-65
2021/12/17 08:42:43;;;;;;;4.63;3.20;;;;;;;;;;4451289;28;20114;-64
2021/12/17 08:44:55;;;;;;;;;;;;;;;;;;4452211;28;20579;-65
2021/12/17 08:47:44;;;;;;;5.20;3.28;;;;;;;;;;4452486;28;19968;-64
2021/12/17 08:50:04;;;;;;;6.18;3.63;;;;;;;;;;4466406;28;20039;-63
2021/12/17 08:52:16;;;;;;;3.53;2.78;;;;;;;;;;4450746;28;20853;-64
2021/12/17 08:54:27;;;;;;;;;;;;;;;;;;4451225;28;20175;-64
2021/12/17 08:56:44;;;;;;;3.70;2.40;;;;;;;;;;4449086;28;19925;-65
2021/12/17 08:58:58;;;;;;;3.15;2.35;;;;;;;;;;4467092;28;20770;-65
2021/12/17 09:01:13;;;;;;;3.33;2.10;;;;;;;;;;4451762;28;20634;-65
2021/12/17 09:03:24;;;;;;;2.70;2.00;;;;;;;;;;4483570;28;20135;-66
2021/12/17 09:06:01;;;;;;;3.05;2.15;;;;;;;;;;4449283;28;20145;-66
2021/12/17 09:08:21;;;;;;;3.53;2.13;;;;;;;;;;4481937;28;20042;-66
2021/12/17 09:10:45;;;;;;;3.67;2.40;;;;;;;;;;4449649;28;20787;-66
2021/12/17 09:12:56;;;;;;;2.90;2.00;;;;;;;;;;4450734;28;20543;-66
2021/12/17 09:15:06;;;;;;;2.97;1.93;;;;;;;;;;4483231;28;20072;-71
2021/12/17 09:17:46;;;;;;;2.40;1.85;;;;;;;;;;4454027;28;20058;-66
2021/12/17 09:19:59;;;;;;;3.58;2.03;;;;;;;;;;4449501;28;20042;-66
2021/12/17 09:22:10;;;;;;;2.85;1.80;;;;;;;;;;4481843;28;20045;-67
2021/12/17 09:24:30;;;;;;;2.63;1.80;;;;;;;;;;4449557;28;20039;-67
2021/12/17 09:27:04;;;;;;;3.10;1.90;;;;;;;;;;4461457;28;20077;-65
2021/12/17 09:29:40;;;;;;;2.40;1.85;;;;;;;;;;4451661;28;20049;-64
2021/12/17 09:31:51;;;;;;;2.80;2.00;;;;;;;;;;4467961;28;20050;-65
2021/12/17 09:34:01;;;;;;;2.20;1.50;;;;;;;;;;4467209;28;20035;-61
2021/12/17 09:36:12;;;;;;;2.23;1.60;;;;;;;;;;4450171;28;20122;-69
2021/12/17 09:38:22;;;;;;;2.13;1.60;;;;;;;;;;4467532;28;20062;-64
2021/12/17 09:40:33;;;;;;;2.77;1.80;;;;;;;;;;4449753;28;20255;-67
2021/12/17 09:42:45;;;;;;;2.80;1.90;;;;;;;;;;4482719;28;20038;-68
2021/12/17 09:44:55;;;;;;;;;;;;;;;;;;4468454;28;20890;-65
2021/12/17 09:47:05;;;;;;;2.30;1.70;;;;;;;;;;4467260;28;20036;-64
2021/12/17 09:49:17;;;;;;;2.37;1.67;;;;;;;;;;4464711;28;20060;-61
2021/12/17 09:51:28;;;;;;;3.20;1.88;;;;;;;;;;4467197;28;20121;-61
2021/12/17 09:53:39;;;;;;;2.80;1.60;;;;;;;;;;4481253;28;20430;-63
2021/12/17 09:55:51;;;;;;;3.03;1.80;;;;;;;;;;4467058;28;20043;-66
2021/12/17 09:58:01;;;;;;;3.72;2.08;;;;;;;;;;4466768;28;20727;-66
2021/12/17 10:00:12;;;;;;;3.43;1.83;;;;;;;;;;4466342;28;20117;-60
2021/12/17 10:02:25;;;;;;;2.75;1.70;;;;;;;;;;4481202;28;20122;-63
2021/12/17 10:04:39;;;;;;;2.10;1.60;;;;;;;;;;4467118;28;20054;-64
2021/12/17 10:06:50;;;;;;;2.38;1.52;;;;;;;;;;4481844;28;20050;-65
2021/12/17 10:09:07;;;;;;;2.28;1.35;;;;;;;;;;4467316;28;20078;-71
2021/12/17 10:11:18;;;;;;;1.63;1.30;;;;;;;;;;4467300;28;20041;-67
2021/12/17 10:13:29;;;;;;;;;;;;;;;;;;4468073;28;20054;-68
2021/12/17 10:15:43;;;;;;;1.75;1.60;;;;;;;;;;4467000;28;21178;-67
2021/12/17 10:18:03;;;;;;;1.63;1.30;;;;;;;;;;4465729;28;20035;-67
2021/12/17 10:20:13;;;;;;;2.40;1.50;;;;;;;;;;4448069;28;20575;-66
2021/12/17 10:22:29;;;;;;;2.00;1.23;;;;;;;;;;4466485;28;20035;-65
2021/12/17 10:24:57;;;;;;;1.85;1.20;;;;;;;;;;4467226;28;20605;-65
2021/12/17 10:27:19;;;;;;;2.08;1.20;;;;;;;;;;4482911;28;20046;-65
2021/12/17 10:29:30;;;;;;;1.50;1.30;;;;;;;;;;4466758;28;20638;-65
2021/12/17 10:31:40;;;;;;;1.70;1.30;;;;;;;;;;4482427;28;20038;-66
2021/12/17 10:33:52;;;;;;;1.73;1.40;;;;;;;;;;4467191;28;20039;-64
2021/12/17 10:36:04;;;;;;;1.55;1.05;;;;;;;;;;4466601;28;20043;-67
2021/12/17 10:38:17;;;;;;;1.58;1.25;;;;;;;;;;4467711;28;20030;-66
2021/12/17 10:40:37;;;;;;;1.65;1.13;;;;;;;;;;4467363;28;20080;-66
2021/12/17 10:42:59;;;;;;;2.55;1.60;;;;;;;;;;4467688;28;20041;-67
2021/12/17 10:45:13;;;;;;;;;;;;;;;;;;4468054;28;20126;-66
2021/12/17 10:47:32;;;;;;;1.95;1.23;;;;;;;;;;4465433;28;19932;-67
2021/12/17 10:49:57;;;;;;;2.22;1.30;;;;;;;;;;4468030;28;20101;-60
2021/12/17 10:52:15;;;;;;;1.67;1.38;;;;;;;;;;4468023;28;20036;-66
2021/12/17 10:54:26;;;;;;;2.20;1.30;;;;;;;;;;4467525;28;20035;-66
2021/12/17 10:56:37;;;;;;;;;;;;;;;;;;4466420;28;20677;-66
2021/12/17 10:58:54;;;;;;;2.03;1.20;;;;;;;;;;4467420;28;19923;-66
2021/12/17 11:01:07;;;;;;;1.38;1.02;;;;;;;;;;4465840;28;20043;-66
2021/12/17 11:03:17;;;;;;;1.58;1.10;;;;;;;;;;4470635;28;20111;-65
2021/12/17 11:05:34;;;;;;;1.10;1.00;;;;;;;;;;4471034;28;20053;-65
2021/12/17 11:07:46;;;;;;;1.70;1.02;;;;;;;;;;4451325;28;20055;-66
2021/12/17 11:09:58;;;;;;;1.80;1.20;;;;;;;;;;4469828;28;20037;-66
2021/12/17 11:12:13;;;;;;;1.70;1.30;;;;;;;;;;4470072;28;20772;-66
2021/12/17 11:14:24;;;;;;;2.30;1.55;;;;;;;;;;4469945;28;20231;-66
2021/12/17 11:16:37;;;;;;;1.90;1.30;;;;;;;;;;4470003;28;20211;-66
2021/12/17 11:18:48;;;;;;;2.03;1.35;;;;;;;;;;4484723;28;20916;-66
2021/12/17 11:20:59;;;;;;;1.67;1.40;;;;;;;;;;4469268;28;20031;-66
2021/12/17 11:23:13;;;;;;;1.80;1.10;;;;;;;;;;4469462;28;20046;-66
2021/12/17 11:25:24;;;;;;;1.45;1.20;;;;;;;;;;4452667;28;20038;-66
2021/12/17 11:27:35;;;;;;;;;;;;;;;;;;4456627;28;20118;-67
2021/12/17 11:29:46;;;;;;;1.38;1.10;;;;;;;;;;4452009;28;19978;-66
2021/12/17 11:31:59;;;;;;;1.30;1.13;;;;;;;;;;4470373;28;20038;-66
2021/12/17 11:34:10;;;;;;;1.17;1.08;;;;;;;;;;4485186;28;20057;-66
2021/12/17 11:36:21;;;;;;;1.40;1.13;;;;;;;;;;4484795;28;20573;-66
2021/12/17 11:38:50;;;;;;;2.45;1.50;;;;;;;;;;4470232;28;20031;-66
2021/12/17 11:41:14;;;;;;;1.27;0.98;;;;;;;;;;4469556;28;20038;-66
2021/12/17 11:43:38;;;;;;;1.67;1.17;;;;;;;;;;4451659;28;20046;-66
2021/12/17 11:46:19;;;;;;;1.35;1.10;;;;;;;;;;4469632;28;20039;-66
2021/12/17 11:48:31;;;;;;;1.48;0.98;;;;;;;;;;4458859;28;20535;-66
2021/12/17 11:50:42;;;;;;;1.17;1.02;;;;;;;;;;4484325;28;20077;-66
2021/12/17 11:52:54;;;;;;;2.00;1.20;;;;;;;;;;4469938;28;20046;-66
2021/12/17 11:55:24;;;;;;;1.50;1.10;;;;;;;;;;4470050;28;20082;-66
2021/12/17 11:57:41;;;;;;;1.58;1.00;;;;;;;;;;4484386;28;20672;-66
2021/12/17 11:59:52;;;;;;;1.50;0.93;;;;;;;;;;4469401;28;20058;-65
2021/12/17 12:02:22;;;;;;;1.17;1.00;;;;;;;;;;4450600;28;20504;-66
2021/12/17 12:04:32;;;;;;;1.23;1.13;;;;;;;;;;4466327;28;20030;-66
2021/12/17 12:07:01;;;;;;;1.27;1.00;;;;;;;;;;4468593;28;20039;-66
2021/12/17 12:09:12;;;;;;;1.10;1.00;;;;;;;;;;4450860;28;20195;-65
2021/12/17 12:11:26;;;;;;;1.33;1.03;;;;;;;;;;4469246;28;20208;-66
2021/12/17 12:13:39;;;;;;;1.88;1.38;;;;;;;;;;4468107;28;20153;-66
2021/12/17 12:16:02;;;;;;;1.95;1.27;;;;;;;;;;4468629;28;20050;-66
2021/12/17 12:18:21;;;;;;;2.10;1.27;;;;;;;;;;4482821;28;20039;-66
2021/12/17 12:20:37;;;;;;;1.20;1.10;;;;;;;;;;4468511;28;20047;-66
2021/12/17 12:23:14;;;;;;;1.38;1.13;;;;;;;;;;4469184;28;20043;-66
2021/12/17 12:25:31;;;;;;;2.63;1.40;;;;;;;;;;4469533;28;20762;-65
2021/12/17 12:27:45;;;;;;;1.50;1.20;;;;;;;;;;4468900;28;20050;-65
2021/12/17 12:29:56;;;;;;;1.88;1.30;;;;;;;;;;4468834;28;20031;-65
2021/12/17 12:32:20;;;;;;;1.60;1.20;;;;;;;;;;4444509;28;20050;-64
2021/12/17 12:34:36;;;;;;;1.33;1.23;;;;;;;;;;4469192;28;20031;-64
2021/12/17 12:36:55;;;;;;;1.50;1.20;;;;;;;;;;4469025;28;21610;-64
2021/12/17 12:39:23;;;;;;;1.83;1.40;;;;;;;;;;4468519;28;20582;-64
2021/12/17 12:41:58;;;;;;;1.48;0.93;;;;;;;;;;4468802;28;20042;-65
2021/12/17 12:44:09;;;;;;;1.20;1.10;;;;;;;;;;4469083;28;20035;-65
2021/12/17 12:46:48;;;;;;;1.20;1.00;;;;;;;;;;4468950;28;20047;-65
2021/12/17 12:48:59;;;;;;;1.73;1.10;;;;;;;;;;4469827;28;20120;-65
2021/12/17 12:51:18;;;;;;;1.10;1.00;;;;;;;;;;4483409;28;20089;-65
2021/12/17 12:53:29;;;;;;;1.63;1.23;;;;;;;;;;4468896;28;20042;-65
2021/12/17 12:55:45;;;;;;;1.30;1.20;;;;;;;;;;4469240;28;20487;-65
2021/12/17 12:58:26;;;;;;;1.33;1.02;;;;;;;;;;4451654;28;20028;-65
2021/12/17 13:00:45;;;;;;;1.60;1.20;;;;;;;;;;4459392;28;20070;-65
2021/12/17 13:03:06;;;;;;;1.25;1.15;;;;;;;;;;4469374;28;20035;-65
2021/12/17 13:05:17;;;;;;;1.27;1.00;;;;;;;;;;4484131;28;20055;-65
2021/12/17 13:07:31;;;;;;;2.30;1.50;;;;;;;;;;4469033;28;20134;-64
2021/12/17 13:09:43;;;;;;;1.90;1.48;;;;;;;;;;4468899;28;20034;-65
2021/12/17 13:11:54;;;;;;;2.50;1.40;;;;;;;;;;4469477;28;20035;-65
2021/12/17 13:14:08;;;;;;;2.07;1.53;;;;;;;;;;4484241;28;20598;-65
2021/12/17 13:16:34;;;;;;;1.75;1.35;;;;;;;;;;4469118;28;20602;-64
2021/12/17 13:23:46;;;;;;;;;;;;;;;;;;4484602;28;20030;-65
2021/12/17 13:26:01;;;;;;;1.85;1.58;;;;;;;;;;4469461;28;20534;-65
2021/12/17 13:28:13;;;;;;;1.85;1.58;;;;;;;;;;4468899;28;20031;-65
2021/12/17 13:30:24;;;;;;;1.60;1.40;;;;;;;;;;4468942;28;20039;-65
2021/12/17 13:32:42;;;;;;;1.92;1.58;;;;;;;;;;4483608;28;20605;-64
2021/12/17 13:34:55;;;;;;;1.90;1.50;;;;;;;;;;4454447;28;20635;-65
2021/12/17 13:37:18;;;;;;;2.63;1.70;;;;;;;;;;4468245;28;20086;-64
2021/12/17 13:39:51;;;;;;;1.92;1.48;;;;;;;;;;4482285;28;21361;-64
2021/12/17 13:42:03;;;;;;;1.35;1.25;;;;;;;;;;4467701;28;20177;-64
2021/12/17 13:44:33;;;;;;;1.95;1.35;;;;;;;;;;4482012;28;21006;-65
2021/12/17 13:46:43;;;;;;;2.55;1.48;;;;;;;;;;4467437;28;20043;-65
2021/12/17 13:48:54;;;;;;;2.13;1.87;;;;;;;;;;4483599;28;20043;-65
2021/12/17 13:51:09;;;;;;;2.13;1.93;;;;;;;;;;4467500;28;20031;-64
2021/12/17 13:53:19;;;;;;;2.95;2.10;;;;;;;;;;4482425;28;20530;-65
2021/12/17 13:55:34;;;;;;;2.07;1.63;;;;;;;;;;4482886;28;20042;-64
2021/12/17 13:57:45;;;;;;;2.58;1.90;;;;;;;;;;4467406;28;20037;-64
2021/12/17 14:00:13;;;;;;;2.72;1.95;;;;;;;;;;4467935;28;20042;-64
2021/12/17 14:02:24;;;;;;;2.00;1.80;;;;;;;;;;4467428;28;20619;-64
2021/12/17 14:04:34;;;;;;;2.33;1.70;;;;;;;;;;4468362;28;20038;-64
2021/12/17 14:06:52;;;;;;;2.17;1.73;;;;;;;;;;4467462;28;20133;-65
2021/12/17 14:09:03;;;;;;;2.58;2.00;;;;;;;;;;4467448;28;20050;-65
2021/12/17 14:11:20;;;;;;;3.47;2.25;;;;;;;;;;4482111;28;20030;-64
2021/12/17 14:13:30;;;;;;;2.65;1.80;;;;;;;;;;4466972;28;20185;-65
2021/12/17 14:15:43;;;;;;;3.23;2.13;;;;;;;;;;4465022;28;20061;-64
2021/12/17 14:18:01;;;;;;;2.72;1.90;;;;;;;;;;4449765;28;20047;-64
2021/12/17 14:20:14;;;;;;;2.42;1.95;;;;;;;;;;4482473;28;20085;-64
2021/12/17 14:22:48;;;;;;;2.55;1.65;;;;;;;;;;4467369;28;20078;-65
2021/12/17 14:24:59;;;;;;;3.65;2.10;;;;;;;;;;4467586;28;20128;-64
2021/12/17 14:27:10;;;;;;;2.63;2.03;;;;;;;;;;4467761;28;20118;-64
2021/12/17 14:29:20;;;;;;;3.03;2.13;;;;;;;;;;4465338;28;20571;-64
2021/12/17 14:31:30;;;;;;;2.20;1.77;;;;;;;;;;4482491;28;20035;-63
2021/12/17 14:33:57;;;;;;;2.33;2.00;;;;;;;;;;4467082;28;20818;-64
2021/12/17 14:36:12;;;;;;;3.17;2.17;;;;;;;;;;4468631;28;20126;-64
2021/12/17 14:39:10;;;;;;;2.35;1.80;;;;;;;;;;4470807;28;20046;-64
2021/12/17 14:41:30;;;;;;;2.05;1.65;;;;;;;;;;4445672;28;20566;-64
2021/12/17 14:43:45;;;;;;;2.15;1.58;;;;;;;;;;4471567;28;20031;-64
2021/12/17 14:46:16;;;;;;;2.33;1.70;;;;;;;;;;4471681;28;20051;-63
2021/12/17 14:48:43;;;;;;;3.30;1.88;;;;;;;;;;4470404;28;20041;-64
2021/12/17 15:01:40;;;;;;;2.97;2.08;;;;;;;;;;4470976;28;20605;-63
2021/12/17 15:03:50;;;;;;;2.13;1.77;;;;;;;;;;4483271;28;20061;-61
2021/12/17 15:06:01;;;;;;;2.27;1.80;;;;;;;;;;4470673;28;20097;-63
2021/12/17 15:08:12;;;;;;;1.80;1.55;;;;;;;;;;4485843;28;21584;-64
2021/12/17 15:10:23;;;;;;;1.80;1.50;;;;;;;;;;4453732;28;20257;-63
2021/12/17 15:14:45;;;;;;;2.05;1.70;;;;;;;;;;4441820;28;20599;-63
2021/12/17 15:16:55;;;;;;;2.90;1.60;;;;;;;;;;4452980;28;20039;-63
2021/12/17 15:19:06;;;;;;;2.37;1.70;;;;;;;;;;4470566;28;20127;-63
2021/12/17 15:21:16;;;;;;;2.20;1.77;;;;;;;;;;4453307;28;20158;-63
2021/12/17 15:23:27;;;;;;;2.07;1.73;;;;;;;;;;4452992;28;20043;-63
2021/12/17 15:25:39;;;;;;;2.73;2.00;;;;;;;;;;4470284;28;20039;-63
2021/12/17 15:27:50;;;;;;;3.33;2.05;;;;;;;;;;4485651;28;20590;-63
2021/12/17 15:30:02;;;;;;;;;;;;;;;;;;4470936;28;20034;-63
2021/12/17 15:32:13;;;;;;;3.28;2.13;;;;;;;;;;4470561;28;20474;-63
2021/12/17 15:34:24;;;;;;;2.73;1.90;;;;;;;;;;4485893;28;20117;-63
2021/12/17 15:36:34;;;;;;;2.67;1.80;;;;;;;;;;4471341;28;20039;-63
2021/12/17 15:38:45;;;;;;;2.20;1.67;;;;;;;;;;4470610;28;20035;-64
2021/12/17 15:40:56;;;;;;;1.75;1.50;;;;;;;;;;4470129;28;20047;-64
2021/12/17 15:43:07;;;;;;;1.73;1.50;;;;;;;;;;4452885;28;20035;-63
2021/12/17 15:45:17;;;;;;;2.25;1.65;;;;;;;;;;4485546;28;20123;-63
2021/12/17 15:47:28;;;;;;;2.80;1.70;;;;;;;;;;4469594;28;20385;-64
2021/12/17 15:49:38;;;;;;;2.23;1.67;;;;;;;;;;4452315;28;20049;-63
2021/12/17 15:51:49;;;;;;;2.60;1.83;;;;;;;;;;4470632;28;20037;-63
2021/12/17 15:53:59;;;;;;;2.20;1.83;;;;;;;;;;4452848;28;20031;-63
2021/12/17 15:56:10;;;;;;;3.77;1.90;;;;;;;;;;4470927;28;20039;-63
2021/12/17 15:58:20;;;;;;;2.13;1.70;;;;;;;;;;4485184;28;20034;-63
2021/12/17 16:00:33;;;;;;;3.23;1.90;;;;;;;;;;4470060;28;20035;-63
2021/12/17 16:02:44;;;;;;;2.45;2.00;;;;;;;;;;4485452;28;20034;-63
2021/12/17 16:04:55;;;;;;;2.22;1.75;;;;;;;;;;4468946;28;20039;-63
2021/12/17 16:07:06;;;;;;;2.65;2.13;;;;;;;;;;4470687;28;20645;-63
2021/12/17 16:10:02;;;;;;;2.53;2.07;;;;;;;;;;4484832;28;20057;-63
2021/12/17 16:12:01;;;;;;;1.88;1.50;;;;;;;;;;4482315;28;20039;-63
2021/12/17 16:21:27;;;;;;;2.35;1.80;;;;;;;;;;4470367;28;20039;-65
2021/12/17 16:23:42;;;;;;;2.93;1.80;;;;;;;;;;4469526;28;20047;-64
2021/12/17 16:25:53;;;;;;;3.10;2.03;;;;;;;;;;4452423;28;20998;-64
2021/12/17 16:28:03;;;;;;;2.17;1.50;;;;;;;;;;4470028;28;20570;-64
2021/12/17 16:30:14;;;;;;;2.97;2.03;;;;;;;;;;4469535;28;20551;-64
2021/12/17 16:32:24;;;;;;;2.27;1.80;;;;;;;;;;4452255;28;20818;-64
2021/12/17 16:34:35;;;;;;;2.70;1.63;;;;;;;;;;4468094;28;20427;-64
2021/12/17 16:36:45;;;;;;;2.20;1.80;;;;;;;;;;4468009;28;20042;-65
2021/12/17 16:38:56;;;;;;;2.50;1.87;;;;;;;;;;4435376;28;20178;-64
2021/12/17 16:41:08;;;;;;;3.10;2.03;;;;;;;;;;4485058;28;20523;-65